sensor_id;sensor_type;location;lat;lon;timestamp;temperature;humidity
53643;DHT22;39546;45.534;12.048;2023-05-07T00:05:47;20.50;76.70
53643;DHT22;39546;45.534;12.048;2023-05-07T00:11:52;20.50;77.30
53643;DHT22;39546;45.534;12.048;2023-05-07T00:17:55;20.40;77.20
53643;DHT22;39546;45.534;12.048;2023-05-07T00:24:01;20.30;77.00
53643;DHT22;39546;45.534;12.048;2023-05-07T00:30:06;20.20;77.00
53643;DHT22;39546;45.534;12.048;2023-05-07T00:36:08;20.20;77.00
53643;DHT22;39546;45.534;12.048;2023-05-07T00:42:11;20.10;76.90
53643;DHT22;39546;45.534;12.048;2023-05-07T00:48:13;20.00;76.90
53643;DHT22;39546;45.534;12.048;2023-05-07T00:54:15;20.00;76.90
53643;DHT22;39546;45.534;12.048;2023-05-07T01:00:19;20.00;76.70
53643;DHT22;39546;45.534;12.048;2023-05-07T01:06:22;20.00;76.80
53643;DHT22;39546;45.534;12.048;2023-05-07T01:12:25;20.00;77.40
53643;DHT22;39546;45.534;12.048;2023-05-07T01:18:28;19.90;77.70
53643;DHT22;39546;45.534;12.048;2023-05-07T01:24:36;19.90;77.60
53643;DHT22;39546;45.534;12.048;2023-05-07T01:30:42;19.80;77.20
53643;DHT22;39546;45.534;12.048;2023-05-07T01:36:52;19.80;77.00
53643;DHT22;39546;45.534;12.048;2023-05-07T01:42:54;19.80;77.10
53643;DHT22;39546;45.534;12.048;2023-05-07T01:48:57;19.50;77.30
53643;DHT22;39546;45.534;12.048;2023-05-07T01:54:59;19.40;77.50
53643;DHT22;39546;45.534;12.048;2023-05-07T02:01:01;19.40;77.60
53643;DHT22;39546;45.534;12.048;2023-05-07T02:07:03;19.40;77.40
53643;DHT22;39546;45.534;12.048;2023-05-07T02:13:06;19.50;77.60
53643;DHT22;39546;45.534;12.048;2023-05-07T02:19:08;19.60;77.50
53643;DHT22;39546;45.534;12.048;2023-05-07T02:25:11;19.50;77.60
53643;DHT22;39546;45.534;12.048;2023-05-07T02:31:13;19.40;77.70
53643;DHT22;39546;45.534;12.048;2023-05-07T02:37:15;19.50;77.30
53643;DHT22;39546;45.534;12.048;2023-05-07T02:43:18;19.50;77.00
53643;DHT22;39546;45.534;12.048;2023-05-07T02:49:21;19.50;77.10
53643;DHT22;39546;45.534;12.048;2023-05-07T02:55:23;19.50;77.20
53643;DHT22;39546;45.534;12.048;2023-05-07T03:01:25;19.40;77.20
53643;DHT22;39546;45.534;12.048;2023-05-07T03:07:28;19.40;77.40
53643;DHT22;39546;45.534;12.048;2023-05-07T03:13:31;19.30;77.60
53643;DHT22;39546;45.534;12.048;2023-05-07T03:19:33;19.30;77.70
53643;DHT22;39546;45.534;12.048;2023-05-07T03:25:35;19.30;77.60
53643;DHT22;39546;45.534;12.048;2023-05-07T03:31:37;19.20;77.70
53643;DHT22;39546;45.534;12.048;2023-05-07T03:37:40;19.10;77.70
53643;DHT22;39546;45.534;12.048;2023-05-07T03:43:43;19.10;77.80
53643;DHT22;39546;45.534;12.048;2023-05-07T03:49:46;19.10;77.90
53643;DHT22;39546;45.534;12.048;2023-05-07T03:55:48;19.20;77.90
53643;DHT22;39546;45.534;12.048;2023-05-07T04:01:52;19.10;77.90
53643;DHT22;39546;45.534;12.048;2023-05-07T04:07:54;19.10;77.90
53643;DHT22;39546;45.534;12.048;2023-05-07T04:13:57;19.10;77.90
53643;DHT22;39546;45.534;12.048;2023-05-07T04:19:59;19.10;78.10
53643;DHT22;39546;45.534;12.048;2023-05-07T04:26:02;19.10;78.20
53643;DHT22;39546;45.534;12.048;2023-05-07T04:32:05;19.00;78.20
53643;DHT22;39546;45.534;12.048;2023-05-07T04:38:08;18.90;78.20
53643;DHT22;39546;45.534;12.048;2023-05-07T04:44:11;19.00;78.10
53643;DHT22;39546;45.534;12.048;2023-05-07T04:50:17;18.90;78.40
53643;DHT22;39546;45.534;12.048;2023-05-07T04:56:21;19.00;78.80
53643;DHT22;39546;45.534;12.048;2023-05-07T05:02:24;19.00;79.10
53643;DHT22;39546;45.534;12.048;2023-05-07T05:08:26;19.10;79.10
53643;DHT22;39546;45.534;12.048;2023-05-07T05:14:29;19.10;79.00
53643;DHT22;39546;45.534;12.048;2023-05-07T05:20:32;19.20;78.90
53643;DHT22;39546;45.534;12.048;2023-05-07T05:26:34;19.30;79.20
53643;DHT22;39546;45.534;12.048;2023-05-07T05:32:37;19.30;79.30
53643;DHT22;39546;45.534;12.048;2023-05-07T05:38:40;19.30;79.00
53643;DHT22;39546;45.534;12.048;2023-05-07T05:44:42;19.30;79.00
53643;DHT22;39546;45.534;12.048;2023-05-07T05:50:45;19.30;79.10
53643;DHT22;39546;45.534;12.048;2023-05-07T05:56:47;19.40;79.10
53643;DHT22;39546;45.534;12.048;2023-05-07T06:02:57;19.50;79.00
53643;DHT22;39546;45.534;12.048;2023-05-07T06:08:59;19.60;78.70
53643;DHT22;39546;45.534;12.048;2023-05-07T06:15:11;19.80;78.70
53643;DHT22;39546;45.534;12.048;2023-05-07T06:21:13;20.00;78.50
53643;DHT22;39546;45.534;12.048;2023-05-07T06:27:39;20.20;78.20
53643;DHT22;39546;45.534;12.048;2023-05-07T06:33:42;20.20;78.10
53643;DHT22;39546;45.534;12.048;2023-05-07T06:39:45;20.30;78.10
53643;DHT22;39546;45.534;12.048;2023-05-07T06:45:47;20.40;78.10
53643;DHT22;39546;45.534;12.048;2023-05-07T06:51:50;20.50;77.80
53643;DHT22;39546;45.534;12.048;2023-05-07T06:57:52;20.60;77.70
53643;DHT22;39546;45.534;12.048;2023-05-07T07:03:55;20.60;77.70
53643;DHT22;39546;45.534;12.048;2023-05-07T07:09:57;20.80;77.40
53643;DHT22;39546;45.534;12.048;2023-05-07T07:16:00;20.90;77.00
53643;DHT22;39546;45.534;12.048;2023-05-07T07:22:03;21.00;76.90
53643;DHT22;39546;45.534;12.048;2023-05-07T07:28:06;21.20;76.70
53643;DHT22;39546;45.534;12.048;2023-05-07T07:34:08;21.30;76.10
53643;DHT22;39546;45.534;12.048;2023-05-07T07:40:11;21.30;75.70
53643;DHT22;39546;45.534;12.048;2023-05-07T07:46:14;21.40;75.40
53643;DHT22;39546;45.534;12.048;2023-05-07T07:52:18;21.50;74.90
53643;DHT22;39546;45.534;12.048;2023-05-07T07:58:21;21.70;74.50
53643;DHT22;39546;45.534;12.048;2023-05-07T08:04:24;21.80;74.00
53643;DHT22;39546;45.534;12.048;2023-05-07T08:10:27;21.80;73.50
53643;DHT22;39546;45.534;12.048;2023-05-07T08:16:32;22.00;72.80
53643;DHT22;39546;45.534;12.048;2023-05-07T08:22:37;22.20;72.40
53643;DHT22;39546;45.534;12.048;2023-05-07T08:28:40;22.20;72.10
53643;DHT22;39546;45.534;12.048;2023-05-07T08:34:43;22.30;71.70
53643;DHT22;39546;45.534;12.048;2023-05-07T08:40:46;22.50;71.40
53643;DHT22;39546;45.534;12.048;2023-05-07T08:46:50;22.50;71.60
53643;DHT22;39546;45.534;12.048;2023-05-07T08:53:03;22.50;71.00
53643;DHT22;39546;45.534;12.048;2023-05-07T08:59:06;22.50;71.00
53643;DHT22;39546;45.534;12.048;2023-05-07T09:05:09;22.60;70.60
53643;DHT22;39546;45.534;12.048;2023-05-07T09:11:12;22.70;70.40
53643;DHT22;39546;45.534;12.048;2023-05-07T09:17:17;22.80;69.80
53643;DHT22;39546;45.534;12.048;2023-05-07T09:23:20;22.80;69.20
53643;DHT22;39546;45.534;12.048;2023-05-07T09:29:25;22.70;69.20
53643;DHT22;39546;45.534;12.048;2023-05-07T09:35:28;22.80;68.90
53643;DHT22;39546;45.534;12.048;2023-05-07T09:41:31;22.80;68.70
53643;DHT22;39546;45.534;12.048;2023-05-07T09:47:39;22.90;67.90
53643;DHT22;39546;45.534;12.048;2023-05-07T09:53:48;23.10;67.50
53643;DHT22;39546;45.534;12.048;2023-05-07T10:00:02;23.30;67.20
53643;DHT22;39546;45.534;12.048;2023-05-07T10:06:12;23.40;66.40
53643;DHT22;39546;45.534;12.048;2023-05-07T10:12:16;23.60;66.50
53643;DHT22;39546;45.534;12.048;2023-05-07T10:18:20;23.80;66.10
53643;DHT22;39546;45.534;12.048;2023-05-07T10:24:34;23.90;67.40
53643;DHT22;39546;45.534;12.048;2023-05-07T10:37:23;24.00;67.00
53643;DHT22;39546;45.534;12.048;2023-05-07T10:43:44;24.20;66.00
53643;DHT22;39546;45.534;12.048;2023-05-07T10:55:52;24.40;66.70
53643;DHT22;39546;45.534;12.048;2023-05-07T11:02:19;24.60;65.30
53643;DHT22;39546;45.534;12.048;2023-05-07T11:08:21;24.80;64.70
53643;DHT22;39546;45.534;12.048;2023-05-07T11:20:54;25.20;63.30
53643;DHT22;39546;45.534;12.048;2023-05-07T11:26:59;25.20;63.00
53643;DHT22;39546;45.534;12.048;2023-05-07T11:33:02;25.40;63.40
53643;DHT22;39546;45.534;12.048;2023-05-07T11:39:06;25.70;62.40
53643;DHT22;39546;45.534;12.048;2023-05-07T11:45:24;25.90;61.50
53643;DHT22;39546;45.534;12.048;2023-05-07T11:51:27;25.90;61.20
53643;DHT22;39546;45.534;12.048;2023-05-07T11:57:33;26.00;60.00
53643;DHT22;39546;45.534;12.048;2023-05-07T12:03:37;25.80;60.40
53643;DHT22;39546;45.534;12.048;2023-05-07T12:09:46;25.60;60.40
53643;DHT22;39546;45.534;12.048;2023-05-07T12:15:53;25.30;60.50
53643;DHT22;39546;45.534;12.048;2023-05-07T12:21:57;25.40;60.70
53643;DHT22;39546;45.534;12.048;2023-05-07T12:28:00;25.30;60.60
53643;DHT22;39546;45.534;12.048;2023-05-07T12:34:03;25.40;60.20
53643;DHT22;39546;45.534;12.048;2023-05-07T12:40:08;25.50;60.20
53643;DHT22;39546;45.534;12.048;2023-05-07T12:46:11;25.60;59.70
53643;DHT22;39546;45.534;12.048;2023-05-07T12:52:17;25.70;59.20
53643;DHT22;39546;45.534;12.048;2023-05-07T12:58:26;25.90;58.60
53643;DHT22;39546;45.534;12.048;2023-05-07T13:04:29;26.20;58.30
53643;DHT22;39546;45.534;12.048;2023-05-07T13:10:47;26.30;57.60
53643;DHT22;39546;45.534;12.048;2023-05-07T13:16:49;26.30;57.30
53643;DHT22;39546;45.534;12.048;2023-05-07T13:22:53;26.30;57.00
53643;DHT22;39546;45.534;12.048;2023-05-07T13:35:41;26.30;58.00
53643;DHT22;39546;45.534;12.048;2023-05-07T13:41:43;26.30;57.40
53643;DHT22;39546;45.534;12.048;2023-05-07T13:47:46;26.40;57.20
53643;DHT22;39546;45.534;12.048;2023-05-07T13:53:48;26.60;56.90
53643;DHT22;39546;45.534;12.048;2023-05-07T13:59:51;26.60;56.30
53643;DHT22;39546;45.534;12.048;2023-05-07T14:05:53;26.60;56.00
53643;DHT22;39546;45.534;12.048;2023-05-07T14:12:05;26.70;55.80
53643;DHT22;39546;45.534;12.048;2023-05-07T14:18:07;26.60;58.00
53643;DHT22;39546;45.534;12.048;2023-05-07T14:24:31;26.30;56.40
53643;DHT22;39546;45.534;12.048;2023-05-07T14:30:34;26.30;56.00
53643;DHT22;39546;45.534;12.048;2023-05-07T14:36:36;26.30;55.20
53643;DHT22;39546;45.534;12.048;2023-05-07T14:42:39;26.40;55.70
53643;DHT22;39546;45.534;12.048;2023-05-07T14:48:43;26.50;55.80
53643;DHT22;39546;45.534;12.048;2023-05-07T14:54:45;26.50;57.00
53643;DHT22;39546;45.534;12.048;2023-05-07T15:01:03;26.50;56.00
53643;DHT22;39546;45.534;12.048;2023-05-07T15:07:06;26.50;54.70
53643;DHT22;39546;45.534;12.048;2023-05-07T15:13:08;26.40;56.10
53643;DHT22;39546;45.534;12.048;2023-05-07T15:19:14;26.40;55.80
53643;DHT22;39546;45.534;12.048;2023-05-07T15:25:19;26.60;54.60
53643;DHT22;39546;45.534;12.048;2023-05-07T15:31:23;26.70;54.00
53643;DHT22;39546;45.534;12.048;2023-05-07T15:37:25;26.60;53.90
53643;DHT22;39546;45.534;12.048;2023-05-07T15:43:27;26.50;54.50
53643;DHT22;39546;45.534;12.048;2023-05-07T15:49:32;26.50;55.50
53643;DHT22;39546;45.534;12.048;2023-05-07T15:55:37;26.50;54.60
53643;DHT22;39546;45.534;12.048;2023-05-07T16:01:40;26.60;54.50
53643;DHT22;39546;45.534;12.048;2023-05-07T16:07:47;26.60;54.30
53643;DHT22;39546;45.534;12.048;2023-05-07T16:13:50;26.60;53.90
53643;DHT22;39546;45.534;12.048;2023-05-07T16:19:59;26.60;53.90
53643;DHT22;39546;45.534;12.048;2023-05-07T16:26:26;26.60;54.00
53643;DHT22;39546;45.534;12.048;2023-05-07T16:32:31;26.40;53.50
53643;DHT22;39546;45.534;12.048;2023-05-07T16:45:23;26.10;53.50
53643;DHT22;39546;45.534;12.048;2023-05-07T16:51:29;26.00;53.60
53643;DHT22;39546;45.534;12.048;2023-05-07T16:57:42;25.80;53.40
53643;DHT22;39546;45.534;12.048;2023-05-07T17:03:48;25.70;53.90
53643;DHT22;39546;45.534;12.048;2023-05-07T17:10:17;25.60;54.50
53643;DHT22;39546;45.534;12.048;2023-05-07T17:16:35;25.40;54.80
53643;DHT22;39546;45.534;12.048;2023-05-07T17:22:45;25.30;55.50
53643;DHT22;39546;45.534;12.048;2023-05-07T17:29:19;25.20;56.00
53643;DHT22;39546;45.534;12.048;2023-05-07T17:35:55;25.00;56.20
53643;DHT22;39546;45.534;12.048;2023-05-07T17:41:58;24.80;56.70
53643;DHT22;39546;45.534;12.048;2023-05-07T17:48:11;24.70;57.20
53643;DHT22;39546;45.534;12.048;2023-05-07T17:54:13;24.60;57.90
53643;DHT22;39546;45.534;12.048;2023-05-07T18:00:15;24.50;58.40
53643;DHT22;39546;45.534;12.048;2023-05-07T18:06:20;24.40;58.70
53643;DHT22;39546;45.534;12.048;2023-05-07T18:12:23;24.40;59.80
53643;DHT22;39546;45.534;12.048;2023-05-07T18:18:26;24.30;60.60
53643;DHT22;39546;45.534;12.048;2023-05-07T18:24:32;24.20;61.50
53643;DHT22;39546;45.534;12.048;2023-05-07T18:30:37;24.20;61.90
53643;DHT22;39546;45.534;12.048;2023-05-07T18:36:41;24.00;62.80
53643;DHT22;39546;45.534;12.048;2023-05-07T18:42:44;23.90;63.60
53643;DHT22;39546;45.534;12.048;2023-05-07T18:48:49;23.80;64.00
53643;DHT22;39546;45.534;12.048;2023-05-07T18:54:54;23.70;65.00
53643;DHT22;39546;45.534;12.048;2023-05-07T19:00:58;23.60;64.90
53643;DHT22;39546;45.534;12.048;2023-05-07T19:07:03;23.70;65.00
53643;DHT22;39546;45.534;12.048;2023-05-07T19:13:07;23.70;65.70
53643;DHT22;39546;45.534;12.048;2023-05-07T19:19:09;23.60;66.90
53643;DHT22;39546;45.534;12.048;2023-05-07T19:32:05;23.50;68.80
53643;DHT22;39546;45.534;12.048;2023-05-07T19:38:08;23.30;70.50
53643;DHT22;39546;45.534;12.048;2023-05-07T19:44:14;23.20;70.70
53643;DHT22;39546;45.534;12.048;2023-05-07T19:50:16;23.30;70.50
53643;DHT22;39546;45.534;12.048;2023-05-07T19:56:20;23.10;71.10
53643;DHT22;39546;45.534;12.048;2023-05-07T20:02:25;23.10;71.40
53643;DHT22;39546;45.534;12.048;2023-05-07T20:08:28;23.00;71.40
53643;DHT22;39546;45.534;12.048;2023-05-07T20:14:32;23.10;71.40
53643;DHT22;39546;45.534;12.048;2023-05-07T20:20:35;23.10;71.40
53643;DHT22;39546;45.534;12.048;2023-05-07T20:26:37;23.00;71.60
53643;DHT22;39546;45.534;12.048;2023-05-07T20:32:39;22.90;71.70
53643;DHT22;39546;45.534;12.048;2023-05-07T20:38:44;22.90;71.90
53643;DHT22;39546;45.534;12.048;2023-05-07T20:44:56;22.90;71.90
53643;DHT22;39546;45.534;12.048;2023-05-07T20:50:59;22.90;72.40
53643;DHT22;39546;45.534;12.048;2023-05-07T20:57:01;22.80;72.90
53643;DHT22;39546;45.534;12.048;2023-05-07T21:03:03;22.80;72.80
53643;DHT22;39546;45.534;12.048;2023-05-07T21:09:08;22.70;72.80
53643;DHT22;39546;45.534;12.048;2023-05-07T21:15:13;22.70;72.90
53643;DHT22;39546;45.534;12.048;2023-05-07T21:21:37;22.60;73.90
53643;DHT22;39546;45.534;12.048;2023-05-07T21:27:39;22.60;74.60
53643;DHT22;39546;45.534;12.048;2023-05-07T21:33:43;22.50;75.30
53643;DHT22;39546;45.534;12.048;2023-05-07T21:39:50;22.50;75.20
53643;DHT22;39546;45.534;12.048;2023-05-07T21:45:55;22.40;74.80
53643;DHT22;39546;45.534;12.048;2023-05-07T21:52:20;22.30;74.80
53643;DHT22;39546;45.534;12.048;2023-05-07T21:58:26;22.30;74.80
53643;DHT22;39546;45.534;12.048;2023-05-07T22:04:29;22.40;75.00
53643;DHT22;39546;45.534;12.048;2023-05-07T22:10:32;22.30;74.90
53643;DHT22;39546;45.534;12.048;2023-05-07T22:16:34;22.30;74.70
53643;DHT22;39546;45.534;12.048;2023-05-07T22:22:50;22.30;75.00
53643;DHT22;39546;45.534;12.048;2023-05-07T22:28:52;22.30;75.00
53643;DHT22;39546;45.534;12.048;2023-05-07T22:34:54;22.20;75.40
53643;DHT22;39546;45.534;12.048;2023-05-07T22:40:57;22.10;75.70
53643;DHT22;39546;45.534;12.048;2023-05-07T22:46:59;22.00;76.00
53643;DHT22;39546;45.534;12.048;2023-05-07T22:53:01;22.00;76.00
53643;DHT22;39546;45.534;12.048;2023-05-07T22:59:03;22.00;75.80
53643;DHT22;39546;45.534;12.048;2023-05-07T23:05:05;22.00;75.80
53643;DHT22;39546;45.534;12.048;2023-05-07T23:11:07;21.90;75.90
53643;DHT22;39546;45.534;12.048;2023-05-07T23:17:09;21.80;76.10
53643;DHT22;39546;45.534;12.048;2023-05-07T23:23:11;21.80;76.20
53643;DHT22;39546;45.534;12.048;2023-05-07T23:29:13;21.80;76.10
53643;DHT22;39546;45.534;12.048;2023-05-07T23:35:15;21.80;76.00
53643;DHT22;39546;45.534;12.048;2023-05-07T23:41:18;21.80;76.10
53643;DHT22;39546;45.534;12.048;2023-05-07T23:47:20;21.90;76.00
53643;DHT22;39546;45.534;12.048;2023-05-07T23:53:22;21.90;76.10
53643;DHT22;39546;45.534;12.048;2023-05-07T23:59:24;21.90;76.00
